sensor_id;sensor_type;location;lat;lon;timestamp;P1;durP1;ratioP1;P2;durP2;ratioP2
52468;SDS011;38381;53.688;10.776;2023-02-15T00:03:22;23.63;;;17.63;;
52468;SDS011;38381;53.688;10.776;2023-02-15T00:08:22;24.90;;;17.50;;
52468;SDS011;38381;53.688;10.776;2023-02-15T00:13:23;20.90;;;16.02;;
52468;SDS011;38381;53.688;10.776;2023-02-15T00:18:23;22.65;;;15.13;;
52468;SDS011;38381;53.688;10.776;2023-02-15T00:23:23;20.95;;;14.60;;
52468;SDS011;38381;53.688;10.776;2023-02-15T00:28:24;27.23;;;16.90;;
52468;SDS011;38381;53.688;10.776;2023-02-15T00:33:24;23.25;;;16.73;;
52468;SDS011;38381;53.688;10.776;2023-02-15T00:38:26;24.63;;;18.02;;
52468;SDS011;38381;53.688;10.776;2023-02-15T00:43:28;22.02;;;17.23;;
52468;SDS011;38381;53.688;10.776;2023-02-15T00:48:30;25.33;;;17.98;;
52468;SDS011;38381;53.688;10.776;2023-02-15T00:53:30;23.95;;;16.67;;
52468;SDS011;38381;53.688;10.776;2023-02-15T00:58:31;21.65;;;17.13;;
52468;SDS011;38381;53.688;10.776;2023-02-15T01:03:31;25.77;;;16.58;;
52468;SDS011;38381;53.688;10.776;2023-02-15T01:08:32;22.88;;;17.00;;
52468;SDS011;38381;53.688;10.776;2023-02-15T01:13:32;22.25;;;16.88;;
52468;SDS011;38381;53.688;10.776;2023-02-15T01:18:34;22.25;;;16.27;;
52468;SDS011;38381;53.688;10.776;2023-02-15T01:23:34;21.92;;;15.05;;
52468;SDS011;38381;53.688;10.776;2023-02-15T01:28:35;20.83;;;14.38;;
52468;SDS011;38381;53.688;10.776;2023-02-15T01:33:35;20.95;;;16.02;;
52468;SDS011;38381;53.688;10.776;2023-02-15T01:38:36;22.88;;;16.17;;
52468;SDS011;38381;53.688;10.776;2023-02-15T01:43:40;23.80;;;14.88;;
52468;SDS011;38381;53.688;10.776;2023-02-15T01:48:47;20.95;;;15.20;;
52468;SDS011;38381;53.688;10.776;2023-02-15T01:53:53;21.25;;;15.55;;
52468;SDS011;38381;53.688;10.776;2023-02-15T01:59:00;23.05;;;16.70;;
52468;SDS011;38381;53.688;10.776;2023-02-15T02:04:22;22.95;;;16.67;;
52468;SDS011;38381;53.688;10.776;2023-02-15T02:09:29;23.23;;;17.52;;
52468;SDS011;38381;53.688;10.776;2023-02-15T02:14:30;26.45;;;18.02;;
52468;SDS011;38381;53.688;10.776;2023-02-15T02:36:33;28.38;;;19.77;;
52468;SDS011;38381;53.688;10.776;2023-02-15T02:57:44;30.27;;;21.05;;
52468;SDS011;38381;53.688;10.776;2023-02-15T03:02:54;31.08;;;22.80;;
52468;SDS011;38381;53.688;10.776;2023-02-15T03:08:05;29.30;;;21.80;;
52468;SDS011;38381;53.688;10.776;2023-02-15T03:13:09;29.88;;;21.67;;
52468;SDS011;38381;53.688;10.776;2023-02-15T03:18:10;25.10;;;20.05;;
52468;SDS011;38381;53.688;10.776;2023-02-15T03:23:13;29.60;;;23.65;;
52468;SDS011;38381;53.688;10.776;2023-02-15T03:28:18;27.67;;;19.92;;
52468;SDS011;38381;53.688;10.776;2023-02-15T03:33:22;26.45;;;21.40;;
52468;SDS011;38381;53.688;10.776;2023-02-15T03:38:33;33.65;;;21.42;;
52468;SDS011;38381;53.688;10.776;2023-02-15T03:43:45;29.90;;;20.00;;
52468;SDS011;38381;53.688;10.776;2023-02-15T03:48:54;32.55;;;23.00;;
52468;SDS011;38381;53.688;10.776;2023-02-15T03:54:01;32.38;;;20.95;;
52468;SDS011;38381;53.688;10.776;2023-02-15T03:59:03;31.70;;;22.45;;
52468;SDS011;38381;53.688;10.776;2023-02-15T04:04:24;34.47;;;23.88;;
52468;SDS011;38381;53.688;10.776;2023-02-15T04:09:36;32.30;;;21.65;;
52468;SDS011;38381;53.688;10.776;2023-02-15T04:14:55;31.35;;;23.05;;
52468;SDS011;38381;53.688;10.776;2023-02-15T04:20:14;29.33;;;22.00;;
52468;SDS011;38381;53.688;10.776;2023-02-15T04:25:33;29.75;;;23.13;;
52468;SDS011;38381;53.688;10.776;2023-02-15T04:30:34;37.00;;;22.67;;
52468;SDS011;38381;53.688;10.776;2023-02-15T04:35:34;30.10;;;21.25;;
52468;SDS011;38381;53.688;10.776;2023-02-15T04:40:35;31.60;;;22.30;;
52468;SDS011;38381;53.688;10.776;2023-02-15T04:45:35;33.00;;;22.13;;
52468;SDS011;38381;53.688;10.776;2023-02-15T04:50:36;31.90;;;23.37;;
52468;SDS011;38381;53.688;10.776;2023-02-15T04:55:36;33.20;;;23.58;;
52468;SDS011;38381;53.688;10.776;2023-02-15T05:00:36;38.78;;;25.80;;
52468;SDS011;38381;53.688;10.776;2023-02-15T05:05:37;39.20;;;29.23;;
52468;SDS011;38381;53.688;10.776;2023-02-15T05:10:37;39.92;;;24.98;;
52468;SDS011;38381;53.688;10.776;2023-02-15T05:15:37;49.75;;;29.63;;
52468;SDS011;38381;53.688;10.776;2023-02-15T05:20:38;52.17;;;28.08;;
52468;SDS011;38381;53.688;10.776;2023-02-15T05:25:39;67.65;;;30.25;;
52468;SDS011;38381;53.688;10.776;2023-02-15T05:31:04;80.45;;;32.17;;
52468;SDS011;38381;53.688;10.776;2023-02-15T05:36:11;42.15;;;26.55;;
52468;SDS011;38381;53.688;10.776;2023-02-15T05:41:12;66.63;;;30.65;;
52468;SDS011;38381;53.688;10.776;2023-02-15T05:46:13;47.97;;;26.13;;
52468;SDS011;38381;53.688;10.776;2023-02-15T05:51:13;93.80;;;33.10;;
52468;SDS011;38381;53.688;10.776;2023-02-15T05:56:15;143.35;;;36.53;;
52468;SDS011;38381;53.688;10.776;2023-02-15T06:01:17;103.03;;;30.70;;
52468;SDS011;38381;53.688;10.776;2023-02-15T06:06:18;85.90;;;30.10;;
52468;SDS011;38381;53.688;10.776;2023-02-15T06:11:19;98.18;;;29.50;;
52468;SDS011;38381;53.688;10.776;2023-02-15T06:16:19;64.80;;;26.15;;
52468;SDS011;38381;53.688;10.776;2023-02-15T06:21:19;43.42;;;27.10;;
52468;SDS011;38381;53.688;10.776;2023-02-15T06:26:20;83.20;;;28.92;;
52468;SDS011;38381;53.688;10.776;2023-02-15T06:31:20;44.72;;;23.08;;
52468;SDS011;38381;53.688;10.776;2023-02-15T06:36:20;28.90;;;21.27;;
52468;SDS011;38381;53.688;10.776;2023-02-15T06:41:21;84.72;;;29.13;;
52468;SDS011;38381;53.688;10.776;2023-02-15T06:46:22;37.65;;;21.45;;
52468;SDS011;38381;53.688;10.776;2023-02-15T06:51:22;57.30;;;23.70;;
52468;SDS011;38381;53.688;10.776;2023-02-15T06:56:22;84.60;;;28.33;;
52468;SDS011;38381;53.688;10.776;2023-02-15T07:01:23;53.50;;;26.30;;
52468;SDS011;38381;53.688;10.776;2023-02-15T07:06:23;69.85;;;28.83;;
52468;SDS011;38381;53.688;10.776;2023-02-15T07:11:24;71.85;;;28.63;;
52468;SDS011;38381;53.688;10.776;2023-02-15T07:16:43;87.40;;;31.98;;
52468;SDS011;38381;53.688;10.776;2023-02-15T07:21:43;76.30;;;30.80;;
52468;SDS011;38381;53.688;10.776;2023-02-15T07:26:45;52.88;;;27.95;;
52468;SDS011;38381;53.688;10.776;2023-02-15T07:31:46;35.75;;;23.67;;
52468;SDS011;38381;53.688;10.776;2023-02-15T07:36:46;43.65;;;26.05;;
52468;SDS011;38381;53.688;10.776;2023-02-15T07:41:47;37.20;;;23.20;;
52468;SDS011;38381;53.688;10.776;2023-02-15T07:46:47;45.78;;;25.70;;
52468;SDS011;38381;53.688;10.776;2023-02-15T07:51:48;69.88;;;27.23;;
52468;SDS011;38381;53.688;10.776;2023-02-15T07:56:48;64.95;;;28.75;;
52468;SDS011;38381;53.688;10.776;2023-02-15T08:01:48;74.30;;;29.90;;
52468;SDS011;38381;53.688;10.776;2023-02-15T08:06:51;72.15;;;27.67;;
52468;SDS011;38381;53.688;10.776;2023-02-15T08:11:52;67.43;;;29.08;;
52468;SDS011;38381;53.688;10.776;2023-02-15T08:16:53;107.75;;;35.97;;
52468;SDS011;38381;53.688;10.776;2023-02-15T08:21:56;97.32;;;29.38;;
52468;SDS011;38381;53.688;10.776;2023-02-15T08:27:04;50.83;;;27.08;;
52468;SDS011;38381;53.688;10.776;2023-02-15T08:32:07;66.85;;;31.38;;
52468;SDS011;38381;53.688;10.776;2023-02-15T08:37:09;68.65;;;30.27;;
52468;SDS011;38381;53.688;10.776;2023-02-15T08:42:10;68.43;;;29.30;;
52468;SDS011;38381;53.688;10.776;2023-02-15T08:47:10;47.53;;;28.60;;
52468;SDS011;38381;53.688;10.776;2023-02-15T08:52:11;35.33;;;24.73;;
52468;SDS011;38381;53.688;10.776;2023-02-15T08:57:11;41.08;;;26.88;;
52468;SDS011;38381;53.688;10.776;2023-02-15T09:02:11;54.20;;;26.10;;
52468;SDS011;38381;53.688;10.776;2023-02-15T09:07:12;43.75;;;25.83;;
52468;SDS011;38381;53.688;10.776;2023-02-15T09:12:12;89.75;;;31.52;;
52468;SDS011;38381;53.688;10.776;2023-02-15T09:17:13;88.88;;;32.00;;
52468;SDS011;38381;53.688;10.776;2023-02-15T09:22:13;56.67;;;25.73;;
52468;SDS011;38381;53.688;10.776;2023-02-15T09:27:13;34.40;;;23.23;;
52468;SDS011;38381;53.688;10.776;2023-02-15T09:32:14;50.65;;;23.00;;
52468;SDS011;38381;53.688;10.776;2023-02-15T09:37:15;76.20;;;30.60;;
52468;SDS011;38381;53.688;10.776;2023-02-15T10:19:31;51.42;;;23.83;;
52468;SDS011;38381;53.688;10.776;2023-02-15T10:29:57;51.92;;;22.77;;
52468;SDS011;38381;53.688;10.776;2023-02-15T10:40:22;40.75;;;24.25;;
52468;SDS011;38381;53.688;10.776;2023-02-15T10:45:49;28.73;;;20.90;;
52468;SDS011;38381;53.688;10.776;2023-02-15T10:50:57;28.65;;;22.08;;
52468;SDS011;38381;53.688;10.776;2023-02-15T11:01:25;40.83;;;20.73;;
52468;SDS011;38381;53.688;10.776;2023-02-15T11:06:32;43.60;;;22.77;;
52468;SDS011;38381;53.688;10.776;2023-02-15T11:11:36;49.83;;;22.48;;
52468;SDS011;38381;53.688;10.776;2023-02-15T11:16:45;82.57;;;28.77;;
52468;SDS011;38381;53.688;10.776;2023-02-15T11:21:50;72.53;;;25.38;;
52468;SDS011;38381;53.688;10.776;2023-02-15T11:32:16;34.03;;;21.63;;
52468;SDS011;38381;53.688;10.776;2023-02-15T11:37:21;37.08;;;22.77;;
52468;SDS011;38381;53.688;10.776;2023-02-15T11:42:27;30.10;;;21.00;;
52468;SDS011;38381;53.688;10.776;2023-02-15T11:47:31;46.63;;;23.98;;
52468;SDS011;38381;53.688;10.776;2023-02-15T11:52:31;46.78;;;22.25;;
52468;SDS011;38381;53.688;10.776;2023-02-15T11:57:34;26.73;;;19.38;;
52468;SDS011;38381;53.688;10.776;2023-02-15T12:02:40;40.75;;;21.40;;
52468;SDS011;38381;53.688;10.776;2023-02-15T12:07:52;25.55;;;20.20;;
52468;SDS011;38381;53.688;10.776;2023-02-15T12:13:08;27.55;;;20.40;;
52468;SDS011;38381;53.688;10.776;2023-02-15T12:18:44;29.60;;;20.48;;
52468;SDS011;38381;53.688;10.776;2023-02-15T12:23:47;28.33;;;20.13;;
52468;SDS011;38381;53.688;10.776;2023-02-15T12:28:50;30.63;;;20.35;;
52468;SDS011;38381;53.688;10.776;2023-02-15T12:33:55;28.63;;;20.42;;
52468;SDS011;38381;53.688;10.776;2023-02-15T12:49:19;25.17;;;19.25;;
52468;SDS011;38381;53.688;10.776;2023-02-15T12:54:34;26.23;;;22.63;;
52468;SDS011;38381;53.688;10.776;2023-02-15T12:59:48;25.88;;;19.55;;
52468;SDS011;38381;53.688;10.776;2023-02-15T13:04:50;25.75;;;19.30;;
52468;SDS011;38381;53.688;10.776;2023-02-15T13:09:51;26.73;;;20.35;;
52468;SDS011;38381;53.688;10.776;2023-02-15T13:14:52;25.95;;;21.70;;
52468;SDS011;38381;53.688;10.776;2023-02-15T13:19:55;26.05;;;20.38;;
52468;SDS011;38381;53.688;10.776;2023-02-15T13:24:59;25.80;;;19.42;;
52468;SDS011;38381;53.688;10.776;2023-02-15T13:30:26;25.63;;;19.58;;
52468;SDS011;38381;53.688;10.776;2023-02-15T13:35:43;25.33;;;20.52;;
52468;SDS011;38381;53.688;10.776;2023-02-15T13:40:53;29.05;;;22.05;;
52468;SDS011;38381;53.688;10.776;2023-02-15T13:46:05;27.15;;;20.75;;
52468;SDS011;38381;53.688;10.776;2023-02-15T13:51:27;43.22;;;23.02;;
52468;SDS011;38381;53.688;10.776;2023-02-15T14:12:26;33.15;;;23.05;;
52468;SDS011;38381;53.688;10.776;2023-02-15T14:23:15;31.77;;;23.50;;
52468;SDS011;38381;53.688;10.776;2023-02-15T14:29:04;30.80;;;23.00;;
52468;SDS011;38381;53.688;10.776;2023-02-15T14:34:27;36.88;;;24.67;;
52468;SDS011;38381;53.688;10.776;2023-02-15T14:45:12;35.42;;;22.55;;
52468;SDS011;38381;53.688;10.776;2023-02-15T14:55:37;66.70;;;31.25;;
52468;SDS011;38381;53.688;10.776;2023-02-15T15:00:38;89.20;;;33.47;;
52468;SDS011;38381;53.688;10.776;2023-02-15T15:05:47;55.72;;;28.42;;
52468;SDS011;38381;53.688;10.776;2023-02-15T15:10:51;65.50;;;28.52;;
52468;SDS011;38381;53.688;10.776;2023-02-15T15:15:51;36.05;;;26.02;;
52468;SDS011;38381;53.688;10.776;2023-02-15T15:20:53;38.45;;;28.77;;
52468;SDS011;38381;53.688;10.776;2023-02-15T15:25:57;49.10;;;28.23;;
52468;SDS011;38381;53.688;10.776;2023-02-15T15:31:32;34.88;;;25.17;;
52468;SDS011;38381;53.688;10.776;2023-02-15T15:41:53;94.07;;;33.45;;
52468;SDS011;38381;53.688;10.776;2023-02-15T15:52:20;42.40;;;28.23;;
52468;SDS011;38381;53.688;10.776;2023-02-15T15:57:30;61.20;;;30.73;;
52468;SDS011;38381;53.688;10.776;2023-02-15T16:02:31;80.30;;;32.10;;
52468;SDS011;38381;53.688;10.776;2023-02-15T16:07:31;132.45;;;39.85;;
52468;SDS011;38381;53.688;10.776;2023-02-15T16:12:35;169.18;;;43.13;;
52468;SDS011;38381;53.688;10.776;2023-02-15T16:17:40;75.75;;;39.70;;
52468;SDS011;38381;53.688;10.776;2023-02-15T16:22:43;114.32;;;37.55;;
52468;SDS011;38381;53.688;10.776;2023-02-15T16:27:43;57.85;;;29.38;;
52468;SDS011;38381;53.688;10.776;2023-02-15T16:32:45;150.43;;;42.20;;
52468;SDS011;38381;53.688;10.776;2023-02-15T16:37:46;60.00;;;30.00;;
52468;SDS011;38381;53.688;10.776;2023-02-15T16:42:47;56.22;;;37.13;;
52468;SDS011;38381;53.688;10.776;2023-02-15T16:47:49;67.47;;;37.95;;
52468;SDS011;38381;53.688;10.776;2023-02-15T16:52:53;103.18;;;37.15;;
52468;SDS011;38381;53.688;10.776;2023-02-15T16:57:55;141.30;;;41.03;;
52468;SDS011;38381;53.688;10.776;2023-02-15T17:03:00;57.83;;;29.92;;
52468;SDS011;38381;53.688;10.776;2023-02-15T17:13:26;63.40;;;29.52;;
52468;SDS011;38381;53.688;10.776;2023-02-15T17:18:28;71.63;;;31.00;;
52468;SDS011;38381;53.688;10.776;2023-02-15T17:23:32;107.70;;;36.60;;
52468;SDS011;38381;53.688;10.776;2023-02-15T17:28:35;84.13;;;32.08;;
52468;SDS011;38381;53.688;10.776;2023-02-15T17:33:36;62.00;;;32.45;;
52468;SDS011;38381;53.688;10.776;2023-02-15T17:38:40;85.70;;;35.10;;
52468;SDS011;38381;53.688;10.776;2023-02-15T17:43:58;75.03;;;31.75;;
52468;SDS011;38381;53.688;10.776;2023-02-15T17:48:59;49.95;;;28.77;;
52468;SDS011;38381;53.688;10.776;2023-02-15T17:54:00;104.35;;;33.40;;
52468;SDS011;38381;53.688;10.776;2023-02-15T17:59:20;52.45;;;27.48;;
52468;SDS011;38381;53.688;10.776;2023-02-15T18:04:20;41.22;;;29.50;;
52468;SDS011;38381;53.688;10.776;2023-02-15T18:09:40;43.08;;;28.90;;
52468;SDS011;38381;53.688;10.776;2023-02-15T18:15:00;35.35;;;24.30;;
52468;SDS011;38381;53.688;10.776;2023-02-15T18:20:01;41.75;;;26.73;;
52468;SDS011;38381;53.688;10.776;2023-02-15T18:25:11;42.83;;;25.35;;
52468;SDS011;38381;53.688;10.776;2023-02-15T18:30:16;44.85;;;23.73;;
52468;SDS011;38381;53.688;10.776;2023-02-15T18:35:19;50.33;;;26.23;;
52468;SDS011;38381;53.688;10.776;2023-02-15T18:40:23;45.38;;;25.75;;
52468;SDS011;38381;53.688;10.776;2023-02-15T18:45:27;53.15;;;27.75;;
52468;SDS011;38381;53.688;10.776;2023-02-15T18:50:32;46.15;;;27.15;;
52468;SDS011;38381;53.688;10.776;2023-02-15T18:55:35;48.28;;;26.42;;
52468;SDS011;38381;53.688;10.776;2023-02-15T19:00:36;41.85;;;26.88;;
52468;SDS011;38381;53.688;10.776;2023-02-15T19:05:36;30.67;;;24.05;;
52468;SDS011;38381;53.688;10.776;2023-02-15T19:10:37;60.80;;;29.60;;
52468;SDS011;38381;53.688;10.776;2023-02-15T19:15:37;48.45;;;26.70;;
52468;SDS011;38381;53.688;10.776;2023-02-15T19:20:39;65.68;;;30.63;;
52468;SDS011;38381;53.688;10.776;2023-02-15T19:25:42;60.70;;;28.98;;
52468;SDS011;38381;53.688;10.776;2023-02-15T19:30:42;50.65;;;25.38;;
52468;SDS011;38381;53.688;10.776;2023-02-15T19:35:44;53.78;;;23.23;;
52468;SDS011;38381;53.688;10.776;2023-02-15T19:40:47;55.70;;;24.33;;
52468;SDS011;38381;53.688;10.776;2023-02-15T19:45:47;44.90;;;22.98;;
52468;SDS011;38381;53.688;10.776;2023-02-15T19:50:51;37.20;;;22.23;;
52468;SDS011;38381;53.688;10.776;2023-02-15T19:55:52;54.38;;;24.52;;
52468;SDS011;38381;53.688;10.776;2023-02-15T20:00:52;49.80;;;22.65;;
52468;SDS011;38381;53.688;10.776;2023-02-15T20:05:52;25.85;;;19.45;;
52468;SDS011;38381;53.688;10.776;2023-02-15T20:10:55;30.43;;;22.43;;
52468;SDS011;38381;53.688;10.776;2023-02-15T20:21:00;50.93;;;26.23;;
52468;SDS011;38381;53.688;10.776;2023-02-15T20:26:08;45.60;;;23.02;;
52468;SDS011;38381;53.688;10.776;2023-02-15T20:31:18;69.85;;;24.88;;
52468;SDS011;38381;53.688;10.776;2023-02-15T20:36:19;56.50;;;23.90;;
52468;SDS011;38381;53.688;10.776;2023-02-15T20:41:21;56.75;;;24.20;;
52468;SDS011;38381;53.688;10.776;2023-02-15T20:46:39;55.95;;;25.08;;
52468;SDS011;38381;53.688;10.776;2023-02-15T20:51:39;45.63;;;24.23;;
52468;SDS011;38381;53.688;10.776;2023-02-15T20:56:40;44.55;;;23.02;;
52468;SDS011;38381;53.688;10.776;2023-02-15T21:01:42;26.05;;;20.42;;
52468;SDS011;38381;53.688;10.776;2023-02-15T21:06:42;36.17;;;21.67;;
52468;SDS011;38381;53.688;10.776;2023-02-15T21:11:43;33.13;;;23.23;;
52468;SDS011;38381;53.688;10.776;2023-02-15T21:16:48;61.90;;;23.15;;
52468;SDS011;38381;53.688;10.776;2023-02-15T21:21:50;46.45;;;26.38;;
52468;SDS011;38381;53.688;10.776;2023-02-15T21:26:52;59.78;;;22.50;;
52468;SDS011;38381;53.688;10.776;2023-02-15T21:31:54;31.20;;;23.47;;
52468;SDS011;38381;53.688;10.776;2023-02-15T21:36:57;53.60;;;27.15;;
52468;SDS011;38381;53.688;10.776;2023-02-15T21:41:58;35.92;;;22.23;;
52468;SDS011;38381;53.688;10.776;2023-02-15T21:47:21;45.05;;;22.88;;
52468;SDS011;38381;53.688;10.776;2023-02-15T21:52:43;48.50;;;25.92;;
52468;SDS011;38381;53.688;10.776;2023-02-15T21:57:44;35.30;;;23.15;;
52468;SDS011;38381;53.688;10.776;2023-02-15T22:02:44;36.13;;;21.90;;
52468;SDS011;38381;53.688;10.776;2023-02-15T22:12:47;30.77;;;22.52;;
52468;SDS011;38381;53.688;10.776;2023-02-15T22:17:49;34.88;;;21.48;;
52468;SDS011;38381;53.688;10.776;2023-02-15T22:22:52;33.15;;;22.63;;
52468;SDS011;38381;53.688;10.776;2023-02-15T22:27:52;33.05;;;24.33;;
52468;SDS011;38381;53.688;10.776;2023-02-15T22:32:54;44.00;;;24.95;;
52468;SDS011;38381;53.688;10.776;2023-02-15T22:42:58;46.03;;;21.58;;
52468;SDS011;38381;53.688;10.776;2023-02-15T22:48:01;28.88;;;20.77;;
52468;SDS011;38381;53.688;10.776;2023-02-15T22:53:02;31.25;;;22.17;;
52468;SDS011;38381;53.688;10.776;2023-02-15T22:58:02;57.55;;;23.90;;
52468;SDS011;38381;53.688;10.776;2023-02-15T23:03:13;50.13;;;23.60;;
52468;SDS011;38381;53.688;10.776;2023-02-15T23:08:15;31.63;;;20.80;;
52468;SDS011;38381;53.688;10.776;2023-02-15T23:13:21;65.20;;;27.30;;
52468;SDS011;38381;53.688;10.776;2023-02-15T23:18:31;44.70;;;23.60;;
52468;SDS011;38381;53.688;10.776;2023-02-15T23:23:36;51.22;;;23.73;;
52468;SDS011;38381;53.688;10.776;2023-02-15T23:28:38;63.28;;;24.92;;
52468;SDS011;38381;53.688;10.776;2023-02-15T23:33:38;38.88;;;23.15;;
52468;SDS011;38381;53.688;10.776;2023-02-15T23:38:39;26.70;;;22.48;;
52468;SDS011;38381;53.688;10.776;2023-02-15T23:43:40;47.40;;;21.52;;
52468;SDS011;38381;53.688;10.776;2023-02-15T23:48:42;30.20;;;21.15;;
52468;SDS011;38381;53.688;10.776;2023-02-15T23:53:43;35.92;;;21.95;;
52468;SDS011;38381;53.688;10.776;2023-02-15T23:58:43;25.58;;;20.73;;
